createdAt,value
2019-03-30T00:02:17.408Z,99.90
2019-03-30T00:04:47.277Z,99.90
2019-03-30T00:07:17.074Z,99.90
2019-03-30T00:09:47.218Z,99.90
2019-03-30T00:12:17.050Z,99.90
2019-03-30T00:14:46.863Z,99.90
2019-03-30T00:17:16.777Z,99.90
2019-03-30T00:19:46.587Z,99.90
2019-03-30T00:22:16.378Z,99.90
2019-03-30T00:24:46.294Z,99.90
2019-03-30T00:27:16.249Z,99.90
2019-03-30T00:29:46.086Z,99.90
2019-03-30T00:32:15.878Z,99.90
2019-03-30T00:34:45.696Z,99.90
2019-03-30T00:37:15.474Z,99.90
2019-03-30T00:39:45.272Z,99.90
2019-03-30T00:42:15.093Z,99.90
2019-03-30T00:44:45.006Z,99.90
2019-03-30T00:47:14.809Z,99.90
2019-03-30T00:49:49.703Z,99.90
2019-03-30T00:52:16.200Z,99.90
2019-03-30T00:54:45.996Z,99.90
2019-03-30T00:57:15.905Z,99.90
2019-03-30T00:59:45.809Z,99.90
2019-03-30T01:02:15.633Z,99.90
2019-03-30T01:04:45.532Z,99.90
2019-03-30T01:07:15.398Z,99.90
2019-03-30T01:09:45.193Z,99.90
2019-03-30T01:12:14.981Z,99.90
2019-03-30T01:14:44.837Z,99.90
2019-03-30T01:17:14.697Z,99.90
2019-03-30T01:19:44.533Z,99.90
2019-03-30T01:22:14.330Z,99.90
2019-03-30T01:24:44.206Z,99.90
2019-03-30T01:27:14.010Z,99.90
2019-03-30T01:29:43.808Z,99.90
2019-03-30T01:32:13.693Z,99.90
2019-03-30T01:34:43.509Z,99.90
2019-03-30T01:37:13.325Z,99.90
2019-03-30T01:39:43.153Z,99.90
2019-03-30T01:42:12.942Z,99.90
2019-03-30T01:44:42.837Z,99.90
2019-03-30T01:47:12.638Z,99.90
2019-03-30T01:49:42.499Z,99.90
2019-03-30T01:52:12.470Z,99.90
2019-03-30T01:54:42.305Z,99.90
2019-03-30T01:57:12.117Z,99.90
2019-03-30T01:59:41.922Z,99.90
2019-03-30T02:02:11.704Z,99.90
2019-03-30T02:04:41.533Z,99.90
2019-03-30T02:07:11.417Z,99.90
2019-03-30T02:09:41.282Z,99.90
2019-03-30T02:12:11.189Z,99.90
2019-03-30T02:14:40.977Z,99.90
2019-03-30T02:17:10.861Z,99.90
2019-03-30T02:19:40.777Z,99.90
2019-03-30T02:22:10.569Z,99.90
2019-03-30T02:24:40.367Z,99.90
2019-03-30T02:27:10.191Z,99.90
2019-03-30T02:29:39.973Z,99.90
2019-03-30T02:32:09.854Z,99.90
2019-03-30T02:34:39.721Z,99.90
2019-03-30T02:37:09.596Z,99.90
2019-03-30T02:39:39.472Z,99.90
2019-03-30T02:42:09.343Z,99.90
2019-03-30T02:44:39.136Z,99.90
2019-03-30T02:47:09.002Z,99.90
2019-03-30T02:49:38.796Z,99.90
2019-03-30T02:52:08.678Z,99.90
2019-03-30T02:54:38.515Z,99.90
2019-03-30T02:57:08.385Z,99.90
2019-03-30T02:59:38.200Z,99.90
2019-03-30T03:02:08.008Z,99.90
2019-03-30T03:04:37.930Z,99.90
2019-03-30T03:07:07.736Z,99.90
2019-03-30T03:09:37.527Z,99.90
2019-03-30T03:12:07.435Z,99.90
2019-03-30T03:14:37.218Z,99.90
2019-03-30T03:17:07.044Z,99.90
2019-03-30T03:19:36.951Z,99.90
2019-03-30T03:22:06.746Z,99.90
2019-03-30T03:24:36.490Z,99.90
2019-03-30T03:27:06.291Z,99.90
2019-03-30T03:29:36.217Z,99.90
2019-03-30T03:32:06.067Z,99.90
2019-03-30T03:34:35.914Z,99.90
2019-03-30T03:37:05.809Z,99.90
2019-03-30T03:39:35.631Z,99.90
2019-03-30T03:42:05.450Z,99.90
2019-03-30T03:44:35.297Z,99.90
2019-03-30T03:47:05.164Z,99.90
2019-03-30T03:49:35.081Z,99.90
2019-03-30T03:52:06.188Z,99.90
2019-03-30T03:54:36.127Z,99.90
2019-03-30T03:57:06.523Z,99.90
2019-03-30T03:59:37.506Z,99.90
2019-03-30T04:02:10.643Z,99.90
2019-03-30T04:04:40.913Z,99.90
2019-03-30T04:07:11.418Z,99.90
2019-03-30T04:09:44.840Z,99.90
2019-03-30T04:12:16.592Z,99.90
2019-03-30T04:14:52.124Z,99.90
2019-03-30T04:17:21.945Z,99.90
2019-03-30T04:19:51.755Z,99.90
2019-03-30T04:22:21.603Z,99.90
2019-03-30T04:24:51.418Z,99.90
2019-03-30T04:27:21.198Z,99.90
2019-03-30T04:29:50.991Z,99.90
2019-03-30T04:32:20.795Z,99.90
2019-03-30T04:34:50.590Z,99.90
2019-03-30T04:37:20.423Z,99.90
2019-03-30T04:39:50.227Z,99.90
2019-03-30T04:42:20.102Z,99.90
2019-03-30T04:44:49.910Z,99.90
2019-03-30T04:47:19.768Z,99.90
2019-03-30T04:49:49.648Z,99.90
2019-03-30T04:52:19.509Z,99.90
2019-03-30T04:54:49.441Z,99.90
2019-03-30T04:57:19.322Z,99.90
2019-03-30T04:59:49.157Z,99.90
2019-03-30T05:02:19.001Z,99.90
2019-03-30T05:04:48.785Z,99.90
2019-03-30T05:07:18.623Z,99.90
2019-03-30T05:09:48.430Z,99.90
2019-03-30T05:12:18.221Z,99.90
2019-03-30T05:14:48.036Z,99.90
2019-03-30T05:17:17.946Z,99.90
2019-03-30T05:19:47.780Z,99.90
2019-03-30T05:22:17.586Z,99.90
2019-03-30T05:24:47.393Z,99.90
2019-03-30T05:27:17.213Z,99.90
2019-03-30T05:29:47.040Z,99.90
2019-03-30T05:32:16.841Z,99.90
2019-03-30T05:34:46.749Z,99.90
2019-03-30T05:37:16.555Z,99.90
2019-03-30T05:39:46.453Z,99.90
2019-03-30T05:42:16.337Z,99.90
2019-03-30T05:44:46.163Z,99.90
2019-03-30T05:47:16.042Z,99.90
2019-03-30T05:49:46.810Z,99.90
2019-03-30T05:52:26.525Z,99.90
2019-03-30T05:54:48.222Z,99.90
2019-03-30T05:57:18.121Z,99.90
2019-03-30T05:59:47.941Z,99.90
2019-03-30T06:02:17.754Z,99.90
2019-03-30T06:04:47.587Z,99.90
2019-03-30T06:07:17.449Z,99.90
2019-03-30T06:09:47.274Z,99.90
2019-03-30T06:12:17.078Z,99.90
2019-03-30T06:14:46.878Z,99.90
2019-03-30T06:17:16.722Z,99.90
2019-03-30T06:19:46.515Z,99.90
2019-03-30T06:22:16.309Z,99.90
2019-03-30T06:24:46.206Z,99.90
2019-03-30T06:27:16.007Z,99.90
2019-03-30T06:30:06.154Z,99.90
2019-03-30T06:32:36.018Z,99.90
2019-03-30T06:35:05.905Z,99.90
2019-03-30T06:37:35.707Z,99.90
2019-03-30T06:40:05.905Z,99.90
2019-03-30T06:42:35.739Z,99.90
2019-03-30T06:45:05.730Z,99.90
2019-03-30T06:47:35.563Z,99.90
2019-03-30T06:50:05.838Z,99.60
2019-03-30T06:52:35.699Z,99.80
2019-03-30T06:55:06.361Z,99.90
2019-03-30T06:57:36.190Z,99.90
2019-03-30T07:00:06.811Z,99.80
2019-03-30T07:02:37.465Z,99.70
2019-03-30T07:05:09.273Z,99.50
2019-03-30T07:07:40.030Z,99.60
2019-03-30T07:10:10.797Z,99.60
2019-03-30T07:12:42.348Z,99.40
2019-03-30T07:15:12.412Z,99.60
2019-03-30T07:17:47.366Z,99.50
2019-03-30T07:20:36.013Z,99.40
2019-03-30T07:23:12.345Z,99.30
2019-03-30T07:25:37.350Z,99.00
2019-03-30T07:28:07.183Z,98.80
2019-03-30T07:30:36.982Z,98.70
2019-03-30T07:33:06.821Z,98.50
2019-03-30T07:35:37.039Z,98.40
2019-03-30T07:38:06.825Z,98.30
2019-03-30T07:40:36.674Z,98.30
2019-03-30T07:43:06.564Z,98.20
2019-03-30T07:45:36.369Z,98.10
2019-03-30T07:48:06.274Z,97.90
2019-03-30T07:50:36.172Z,97.80
2019-03-30T07:53:06.056Z,97.70
2019-03-30T07:55:36.112Z,97.50
2019-03-30T07:58:06.048Z,97.40
2019-03-30T08:00:35.969Z,97.10
2019-03-30T08:03:06.013Z,97.00
2019-03-30T08:05:35.823Z,96.70
2019-03-30T08:08:05.743Z,96.60
2019-03-30T08:10:35.563Z,96.50
2019-03-30T08:13:05.382Z,96.20
2019-03-30T08:15:35.255Z,96.00
2019-03-30T08:18:05.436Z,95.80
2019-03-30T08:20:35.258Z,95.60
2019-03-30T08:23:05.142Z,95.60
2019-03-30T08:25:35.220Z,95.30
2019-03-30T08:28:05.027Z,95.20
2019-03-30T08:30:34.838Z,95.00
2019-03-30T08:33:04.654Z,94.70
2019-03-30T08:35:34.475Z,94.50
2019-03-30T08:38:04.341Z,94.30
2019-03-30T08:40:34.153Z,93.90
2019-03-30T08:43:04.004Z,94.30
2019-03-30T08:45:33.799Z,93.90
2019-03-30T08:48:03.594Z,93.20
2019-03-30T08:50:33.393Z,93.20
2019-03-30T08:53:03.313Z,93.10
2019-03-30T08:55:33.126Z,92.80
2019-03-30T08:58:02.926Z,92.80
2019-03-30T09:00:38.913Z,92.70
2019-03-30T09:03:09.085Z,92.40
2019-03-30T09:05:38.986Z,92.00
2019-03-30T09:08:08.919Z,91.90
2019-03-30T09:10:38.719Z,91.50
2019-03-30T09:13:08.542Z,91.40
2019-03-30T09:15:38.397Z,80.20
2019-03-30T09:18:08.403Z,66.00
2019-03-30T09:20:38.308Z,52.80
2019-03-30T09:23:08.093Z,46.90
2019-03-30T09:25:38.038Z,42.20
2019-03-30T09:28:07.842Z,38.70
2019-03-30T09:30:37.697Z,33.50
2019-03-30T09:33:07.517Z,32.50
2019-03-30T09:35:37.330Z,30.20
2019-03-30T09:38:07.207Z,29.70
2019-03-30T09:40:37.089Z,29.30
2019-03-30T09:43:06.902Z,26.80
2019-03-30T09:45:36.774Z,28.70
2019-03-30T09:48:06.585Z,27.80
2019-03-30T09:50:36.408Z,27.40
2019-03-30T09:53:06.306Z,26.20
2019-03-30T09:55:36.102Z,26.10
2019-03-30T09:58:05.903Z,25.20
2019-03-30T10:00:35.754Z,27.00
2019-03-30T10:03:06.172Z,25.60
2019-03-30T10:05:36.162Z,25.90
2019-03-30T10:08:05.979Z,25.30
2019-03-30T10:10:35.798Z,25.60
2019-03-30T10:13:05.614Z,25.40
2019-03-30T10:15:35.442Z,24.70
2019-03-30T10:18:05.256Z,24.40
2019-03-30T10:20:35.130Z,24.70
2019-03-30T10:23:04.957Z,25.20
2019-03-30T10:25:34.794Z,24.60
2019-03-30T10:28:04.672Z,25.40
2019-03-30T10:30:34.478Z,25.10
2019-03-30T10:33:04.292Z,24.50
2019-03-30T10:35:34.113Z,24.00
2019-03-30T10:38:03.989Z,24.50
2019-03-30T10:40:33.810Z,25.10
2019-03-30T10:43:03.654Z,25.80
2019-03-30T10:45:33.529Z,27.10
2019-03-30T10:48:03.356Z,27.90
2019-03-30T10:50:33.169Z,28.00
2019-03-30T10:53:02.985Z,28.90
2019-03-30T10:55:32.794Z,31.70
2019-03-30T10:58:02.612Z,33.80
2019-03-30T11:00:40.786Z,35.50
2019-03-30T11:03:10.663Z,37.80
2019-03-30T11:05:40.537Z,39.90
2019-03-30T11:08:10.453Z,41.00
2019-03-30T11:10:40.274Z,42.10
2019-03-30T11:13:10.181Z,42.60
2019-03-30T11:15:39.982Z,43.70
2019-03-30T11:18:09.834Z,44.00
2019-03-30T11:20:39.719Z,44.70
2019-03-30T11:23:09.550Z,44.90
2019-03-30T11:25:39.375Z,45.30
2019-03-30T11:28:09.230Z,45.10
2019-03-30T11:30:39.037Z,45.60
2019-03-30T11:33:08.831Z,46.30
2019-03-30T11:35:38.694Z,46.50
2019-03-30T11:38:08.532Z,46.30
2019-03-30T11:40:38.375Z,46.20
2019-03-30T11:43:08.173Z,46.10
2019-03-30T11:45:38.017Z,46.00
2019-03-30T11:48:07.854Z,46.20
2019-03-30T11:50:37.678Z,45.90
2019-03-30T11:53:07.471Z,45.60
2019-03-30T11:55:37.293Z,45.30
2019-03-30T11:58:07.121Z,45.00
2019-03-30T12:00:37.158Z,44.60
2019-03-30T12:03:06.959Z,44.00
2019-03-30T12:05:36.785Z,43.80
2019-03-30T12:08:06.595Z,43.00
2019-03-30T12:10:36.611Z,42.60
2019-03-30T12:13:06.463Z,42.50
2019-03-30T12:15:36.274Z,40.80
2019-03-30T12:18:06.073Z,40.40
2019-03-30T12:20:35.907Z,40.20
2019-03-30T12:23:05.717Z,40.80
2019-03-30T12:25:36.273Z,41.60
2019-03-30T12:28:06.238Z,42.30
2019-03-30T12:30:36.087Z,42.60
2019-03-30T12:33:05.898Z,43.90
2019-03-30T12:35:35.702Z,44.40
2019-03-30T12:38:05.571Z,44.80
2019-03-30T12:40:35.441Z,45.00
2019-03-30T12:43:05.254Z,45.10
2019-03-30T12:45:35.056Z,45.10
2019-03-30T12:48:04.882Z,45.10
2019-03-30T12:50:34.698Z,45.00
2019-03-30T12:53:04.489Z,44.90
2019-03-30T12:55:48.384Z,44.80
2019-03-30T12:58:06.177Z,44.80
2019-03-30T13:00:35.990Z,45.10
2019-03-30T13:03:05.825Z,44.60
2019-03-30T13:05:35.653Z,44.60
2019-03-30T13:08:05.525Z,43.60
2019-03-30T13:10:35.644Z,43.30
2019-03-30T13:13:05.525Z,44.00
2019-03-30T13:15:35.401Z,42.50
2019-03-30T13:18:05.269Z,42.80
2019-03-30T13:20:35.190Z,42.80
2019-03-30T13:23:05.038Z,43.00
2019-03-30T13:25:34.949Z,42.90
2019-03-30T13:28:04.869Z,43.90
2019-03-30T13:30:34.724Z,42.70
2019-03-30T13:33:04.528Z,42.70
2019-03-30T13:35:34.339Z,42.50
2019-03-30T13:38:04.207Z,42.30
2019-03-30T13:40:34.037Z,42.20
2019-03-30T13:43:03.843Z,41.90
2019-03-30T13:45:33.651Z,41.00
2019-03-30T13:48:03.524Z,40.70
2019-03-30T13:50:33.353Z,39.90
2019-03-30T13:53:03.206Z,39.60
2019-03-30T13:55:32.997Z,39.50
2019-03-30T13:58:02.860Z,38.70
2019-03-30T14:00:32.715Z,37.30
2019-03-30T14:03:02.530Z,36.80
2019-03-30T14:05:32.373Z,36.30
2019-03-30T14:08:02.237Z,35.30
2019-03-30T14:10:32.057Z,34.70
2019-03-30T14:13:01.929Z,35.00
2019-03-30T14:15:31.756Z,34.20
2019-03-30T14:18:01.685Z,34.20
2019-03-30T14:20:31.593Z,35.10
2019-03-30T14:23:01.484Z,35.40
2019-03-30T14:25:31.336Z,35.60
2019-03-30T14:28:01.140Z,36.80
2019-03-30T14:30:30.985Z,37.10
2019-03-30T14:33:00.917Z,37.10
2019-03-30T14:35:30.761Z,37.10
2019-03-30T14:38:00.582Z,37.40
2019-03-30T14:40:30.390Z,36.10
2019-03-30T14:43:00.624Z,36.20
2019-03-30T14:45:30.434Z,36.40
2019-03-30T14:48:00.242Z,36.80
2019-03-30T14:50:30.122Z,37.10
2019-03-30T14:52:59.973Z,37.00
2019-03-30T14:55:29.821Z,38.10
2019-03-30T14:57:59.618Z,38.40
2019-03-30T15:00:29.536Z,38.80
2019-03-30T15:02:59.562Z,39.10
2019-03-30T15:05:29.494Z,39.40
2019-03-30T15:07:59.325Z,39.70
2019-03-30T15:10:29.190Z,39.90
2019-03-30T15:12:59.034Z,40.00
2019-03-30T15:15:28.827Z,40.30
2019-03-30T15:17:58.633Z,40.00
2019-03-30T15:20:28.468Z,40.60
2019-03-30T15:22:58.275Z,40.80
2019-03-30T15:25:28.133Z,40.70
2019-03-30T15:27:57.950Z,41.30
2019-03-30T15:30:27.761Z,40.70
2019-03-30T15:32:57.770Z,41.30
2019-03-30T15:35:27.579Z,41.40
2019-03-30T15:37:57.471Z,41.60
2019-03-30T15:40:27.294Z,41.80
2019-03-30T15:42:57.191Z,42.10
2019-03-30T15:45:27.097Z,42.50
2019-03-30T15:47:57.019Z,42.50
2019-03-30T15:50:26.857Z,42.70
2019-03-30T15:52:57.090Z,43.00
2019-03-30T15:55:26.887Z,42.80
2019-03-30T15:57:56.689Z,42.70
2019-03-30T16:00:26.670Z,42.70
2019-03-30T16:02:56.479Z,42.60
2019-03-30T16:05:26.277Z,42.80
2019-03-30T16:07:56.124Z,42.80
2019-03-30T16:10:25.936Z,42.70
2019-03-30T16:12:55.847Z,43.10
2019-03-30T16:15:25.674Z,42.70
2019-03-30T16:17:55.501Z,43.30
2019-03-30T16:20:25.368Z,43.30
2019-03-30T16:22:55.214Z,43.40
2019-03-30T16:25:25.030Z,43.50
2019-03-30T16:27:54.865Z,43.30
2019-03-30T16:30:24.690Z,43.50
2019-03-30T16:32:54.582Z,43.50
2019-03-30T16:35:24.405Z,43.50
2019-03-30T16:37:54.218Z,43.50
2019-03-30T16:40:24.034Z,43.50
2019-03-30T16:42:53.833Z,43.60
2019-03-30T16:45:23.665Z,43.60
2019-03-30T16:47:53.516Z,43.80
2019-03-30T16:50:23.327Z,44.00
2019-03-30T16:52:53.113Z,44.40
2019-03-30T16:55:22.949Z,44.40
2019-03-30T16:57:52.798Z,44.60
2019-03-30T17:00:22.618Z,44.70
2019-03-30T17:02:52.465Z,44.50
2019-03-30T17:05:22.278Z,44.00
2019-03-30T17:07:52.118Z,43.90
2019-03-30T17:10:22.021Z,43.90
2019-03-30T17:12:51.844Z,43.80
2019-03-30T17:15:21.731Z,44.00
2019-03-30T17:17:51.530Z,44.00
2019-03-30T17:20:21.330Z,44.20
2019-03-30T17:22:51.214Z,44.20
2019-03-30T17:25:21.009Z,44.40
2019-03-30T17:27:58.167Z,44.90
2019-03-30T17:30:22.398Z,45.20
2019-03-30T17:32:52.259Z,45.30
2019-03-30T17:35:22.191Z,45.60
2019-03-30T17:37:52.042Z,45.70
2019-03-30T17:40:21.871Z,45.70
2019-03-30T17:42:51.766Z,45.80
2019-03-30T17:45:21.607Z,45.90
2019-03-30T17:47:51.445Z,45.90
2019-03-30T17:50:21.250Z,45.80
2019-03-30T17:52:51.134Z,46.20
2019-03-30T17:55:32.999Z,46.20
2019-03-30T17:57:52.498Z,46.40
2019-03-30T18:00:22.523Z,46.20
2019-03-30T18:02:52.331Z,45.90
2019-03-30T18:05:22.182Z,45.70
2019-03-30T18:07:51.986Z,45.80
2019-03-30T18:10:21.801Z,45.90
2019-03-30T18:12:51.610Z,45.70
2019-03-30T18:15:21.430Z,45.90
2019-03-30T18:17:51.298Z,46.00
2019-03-30T18:20:21.090Z,45.70
2019-03-30T18:22:50.890Z,45.90
2019-03-30T18:25:20.765Z,46.00
2019-03-30T18:27:50.660Z,46.00
2019-03-30T18:30:34.590Z,46.00
2019-03-30T18:33:04.506Z,46.10
2019-03-30T18:35:34.834Z,46.00
2019-03-30T18:38:05.050Z,46.10
2019-03-30T18:40:35.281Z,46.20
2019-03-30T18:43:05.218Z,46.40
2019-03-30T18:45:35.966Z,47.00
2019-03-30T18:48:13.314Z,46.80
2019-03-30T18:50:43.466Z,46.80
2019-03-30T18:53:13.346Z,47.30
2019-03-30T18:55:43.193Z,47.30
2019-03-30T18:58:13.007Z,47.80
2019-03-30T19:00:42.817Z,48.80
2019-03-30T19:03:12.659Z,50.70
2019-03-30T19:05:42.544Z,50.30
2019-03-30T19:08:12.440Z,51.50
2019-03-30T19:10:42.294Z,51.80
2019-03-30T19:13:12.141Z,52.20
2019-03-30T19:15:41.965Z,51.50
2019-03-30T19:18:11.896Z,52.20
2019-03-30T19:20:41.770Z,51.90
2019-03-30T19:23:11.594Z,51.40
2019-03-30T19:25:41.573Z,52.20
2019-03-30T19:28:11.378Z,52.00
2019-03-30T19:30:42.321Z,51.70
2019-03-30T19:33:12.695Z,52.40
2019-03-30T19:35:42.498Z,53.30
2019-03-30T19:38:12.320Z,52.60
2019-03-30T19:40:42.314Z,53.50
2019-03-30T19:43:12.118Z,54.30
2019-03-30T19:45:42.184Z,56.20
2019-03-30T19:48:12.073Z,56.00
2019-03-30T19:50:41.962Z,56.40
2019-03-30T19:53:11.833Z,56.30
2019-03-30T19:55:41.642Z,56.80
2019-03-30T19:58:11.465Z,56.60
2019-03-30T20:00:41.271Z,56.50
2019-03-30T20:03:11.075Z,55.90
2019-03-30T20:05:44.420Z,56.80
2019-03-30T20:08:12.842Z,55.90
2019-03-30T20:10:42.850Z,56.10
2019-03-30T20:13:12.710Z,56.30
2019-03-30T20:15:42.522Z,56.00
2019-03-30T20:18:12.401Z,55.70
2019-03-30T20:20:42.244Z,56.10
2019-03-30T20:23:12.040Z,56.30
2019-03-30T20:25:41.876Z,56.40
2019-03-30T20:28:11.729Z,56.00
2019-03-30T20:30:41.618Z,56.60
2019-03-30T20:33:11.438Z,56.60
2019-03-30T20:35:41.246Z,57.00
2019-03-30T20:38:11.060Z,57.00
2019-03-30T20:40:41.024Z,57.90
2019-03-30T20:43:10.907Z,57.00
2019-03-30T20:45:40.856Z,57.40
2019-03-30T20:48:10.695Z,57.50
2019-03-30T20:50:40.501Z,58.00
2019-03-30T20:53:10.357Z,58.60
2019-03-30T20:55:40.157Z,59.00
2019-03-30T20:58:09.962Z,59.40
2019-03-30T21:00:39.811Z,59.20
2019-03-30T21:03:09.707Z,61.00
2019-03-30T21:05:39.582Z,60.50
2019-03-30T21:08:09.394Z,60.80
2019-03-30T21:10:39.300Z,60.50
2019-03-30T21:13:09.238Z,61.20
2019-03-30T21:15:39.134Z,61.90
2019-03-30T21:18:09.021Z,61.40
2019-03-30T21:20:38.896Z,61.20
2019-03-30T21:23:08.691Z,61.90
2019-03-30T21:25:38.501Z,62.30
2019-03-30T21:28:08.313Z,62.80
2019-03-30T21:30:38.150Z,63.50
2019-03-30T21:33:07.997Z,64.00
2019-03-30T21:35:37.995Z,64.50
2019-03-30T21:38:07.843Z,65.00
2019-03-30T21:40:37.640Z,65.50
2019-03-30T21:43:07.492Z,66.10
2019-03-30T21:45:37.485Z,67.00
2019-03-30T21:48:07.442Z,67.60
2019-03-30T21:50:37.273Z,69.00
2019-03-30T21:53:07.109Z,69.10
2019-03-30T21:55:36.951Z,71.40
2019-03-30T21:58:06.745Z,71.70
2019-03-30T22:00:38.231Z,72.20
2019-03-30T22:03:08.345Z,72.70
2019-03-30T22:05:38.185Z,72.80
2019-03-30T22:08:07.998Z,74.60
2019-03-30T22:10:37.830Z,76.70
2019-03-30T22:13:07.655Z,77.70
2019-03-30T22:15:37.490Z,77.80
2019-03-30T22:18:07.351Z,77.80
2019-03-30T22:20:37.233Z,79.60
2019-03-30T22:23:07.038Z,80.30
2019-03-30T22:25:36.986Z,80.90
2019-03-30T22:28:06.858Z,82.10
2019-03-30T22:30:36.762Z,81.40
2019-03-30T22:33:06.586Z,82.30
2019-03-30T22:35:36.394Z,82.50
2019-03-30T22:38:06.202Z,83.10
2019-03-30T22:40:36.050Z,84.00
2019-03-30T22:43:05.957Z,84.30
2019-03-30T22:45:35.753Z,85.40
2019-03-30T22:48:05.605Z,85.20
2019-03-30T22:50:35.549Z,86.30
2019-03-30T22:53:05.364Z,86.60
2019-03-30T22:55:35.294Z,87.40
2019-03-30T22:58:05.105Z,87.60
2019-03-30T23:00:47.149Z,88.00
2019-03-30T23:03:16.957Z,87.30
2019-03-30T23:05:46.761Z,88.30
2019-03-30T23:08:16.658Z,88.50
2019-03-30T23:10:46.474Z,88.30
2019-03-30T23:13:16.338Z,88.40
2019-03-30T23:15:46.154Z,88.90
2019-03-30T23:18:16.055Z,88.00
2019-03-30T23:20:45.790Z,88.70
2019-03-30T23:23:15.660Z,88.00
2019-03-30T23:25:45.474Z,88.00
2019-03-30T23:28:15.265Z,88.00
2019-03-30T23:30:54.198Z,88.30
2019-03-30T23:33:16.607Z,88.00
2019-03-30T23:35:46.406Z,87.90
2019-03-30T23:38:16.199Z,87.50
2019-03-30T23:40:46.045Z,87.40
2019-03-30T23:43:15.839Z,88.10
2019-03-30T23:45:45.639Z,87.30
2019-03-30T23:48:15.437Z,87.60
2019-03-30T23:50:45.634Z,88.00
2019-03-30T23:53:15.446Z,87.70
2019-03-30T23:55:45.286Z,87.70
2019-03-30T23:58:15.082Z,88.10
